Time;durP1;ratioP1;P1;durP2;ratioP2;P2;SDS_P1;SDS_P2;PMS_P1;PMS_P2;Temp;Humidity;BMP_temperature;BMP_pressure;BME280_temperature;BME280_humidity;BME280_pressure;Samples;Min_cycle;Max_cycle;Signal;HPM_P1;HPM_P2
2021/08/05 00:00:48;;;;;;;7.57;4.20;;;;;;;;;;5099608;27;20087;-51
2021/08/05 00:03:15;;;;;;;12.18;4.20;;;;;;;;;;5099414;27;20306;-47
2021/08/05 00:05:41;;;;;;;8.18;3.85;;;;;;;;;;5099075;27;20016;-48
2021/08/05 00:08:07;;;;;;;6.35;4.03;;;;;;;;;;5099216;27;20031;-47
2021/08/05 00:10:33;;;;;;;6.88;4.05;;;;;;;;;;5099314;27;20019;-51
2021/08/05 00:12:59;;;;;;;8.63;3.90;;;;;;;;;;5099021;27;20035;-49
2021/08/05 00:15:25;;;;;;;8.05;4.03;;;;;;;;;;5098913;27;20107;-48
2021/08/05 00:17:51;;;;;;;8.15;3.90;;;;;;;;;;5099104;27;20035;-47
2021/08/05 00:20:17;;;;;;;7.32;3.75;;;;;;;;;;5099150;27;20081;-46
2021/08/05 00:22:44;;;;;;;4.97;3.90;;;;;;;;;;5099393;27;20050;-47
2021/08/05 00:25:10;;;;;;;5.90;3.90;;;;;;;;;;5098675;27;20038;-52
2021/08/05 00:27:38;;;;;;;25.42;18.73;;;;;;;;;;5099223;27;20030;-46
2021/08/05 00:30:07;;;;;;;6.70;4.80;;;;;;;;;;5087882;27;20393;-51
2021/08/05 00:32:33;;;;;;;11.13;4.03;;;;;;;;;;5134976;27;20023;-50
2021/08/05 00:35:01;;;;;;;6.13;3.72;;;;;;;;;;5134784;27;20022;-55
2021/08/05 00:37:27;;;;;;;7.13;4.20;;;;;;;;;;5134605;27;20023;-52
2021/08/05 00:39:53;;;;;;;7.88;4.07;;;;;;;;;;5134678;27;20019;-54
2021/08/05 00:42:19;;;;;;;5.93;4.10;;;;;;;;;;5134595;27;20388;-50
2021/08/05 00:44:46;;;;;;;6.00;3.83;;;;;;;;;;5134740;27;20038;-54
2021/08/05 00:47:12;;;;;;;6.95;4.35;;;;;;;;;;5134223;27;20031;-51
2021/08/05 00:49:38;;;;;;;6.53;4.30;;;;;;;;;;5134467;27;20102;-50
2021/08/05 00:52:04;;;;;;;5.72;3.92;;;;;;;;;;5134222;27;20068;-55
2021/08/05 00:54:30;;;;;;;6.82;3.97;;;;;;;;;;5134188;27;20028;-57
2021/08/05 00:56:56;;;;;;;12.90;4.85;;;;;;;;;;5134416;27;20117;-53
2021/08/05 00:59:22;;;;;;;6.10;4.18;;;;;;;;;;5115530;27;20035;-53
2021/08/05 01:01:53;;;;;;;6.80;3.90;;;;;;;;;;5134394;27;20029;-55
2021/08/05 01:04:19;;;;;;;9.13;4.07;;;;;;;;;;5134290;27;20023;-56
2021/08/05 01:06:57;;;;;;;7.03;3.72;;;;;;;;;;5134210;27;20283;-56
2021/08/05 01:09:26;;;;;;;7.82;4.28;;;;;;;;;;5134327;27;20093;-55
2021/08/05 01:12:01;;;;;;;5.53;3.72;;;;;;;;;;5134383;27;20058;-55
2021/08/05 01:14:29;;;;;;;11.15;4.15;;;;;;;;;;5134113;27;20027;-55
2021/08/05 01:16:56;;;;;;;5.30;3.42;;;;;;;;;;5134200;28;20027;-51
2021/08/05 01:19:28;;;;;;;6.00;3.70;;;;;;;;;;5134139;28;20064;-51
2021/08/05 01:22:00;;;;;;;5.43;4.10;;;;;;;;;;5134291;28;20024;-52
2021/08/05 01:24:27;;;;;;;6.80;3.97;;;;;;;;;;5115844;28;20122;-53
2021/08/05 01:26:55;;;;;;;5.22;3.50;;;;;;;;;;5134114;28;20050;-51
2021/08/05 01:29:21;;;;;;;7.40;3.65;;;;;;;;;;5134273;28;20050;-55
2021/08/05 01:31:49;;;;;;;4.70;4.18;;;;;;;;;;5134054;28;20059;-53
2021/08/05 01:34:16;;;;;;;7.55;3.80;;;;;;;;;;5134120;28;20038;-52
2021/08/05 01:36:46;;;;;;;6.85;4.10;;;;;;;;;;5133986;28;20042;-55
2021/08/05 01:39:12;;;;;;;8.57;4.07;;;;;;;;;;5134084;28;20028;-54
2021/08/05 01:41:38;;;;;;;5.82;4.03;;;;;;;;;;5133985;28;20019;-54
2021/08/05 01:44:08;;;;;;;8.30;3.85;;;;;;;;;;5133901;28;20430;-55
2021/08/05 01:46:35;;;;;;;8.00;3.83;;;;;;;;;;5115389;28;20023;-49
2021/08/05 01:49:01;;;;;;;5.78;3.58;;;;;;;;;;5134139;28;20019;-51
2021/08/05 01:51:27;;;;;;;4.97;3.75;;;;;;;;;;5134198;28;20027;-52
2021/08/05 01:53:54;;;;;;;5.00;3.50;;;;;;;;;;5133936;28;20027;-53
2021/08/05 01:56:24;;;;;;;6.93;5.00;;;;;;;;;;5133702;27;20110;-48
2021/08/05 01:58:51;;;;;;;3.92;3.53;;;;;;;;;;5136594;27;20106;-49
2021/08/05 02:01:17;;;;;;;6.25;4.00;;;;;;;;;;5137729;27;20483;-50
2021/08/05 02:03:47;;;;;;;14.55;4.13;;;;;;;;;;5137967;27;20030;-56
2021/08/05 02:06:21;;;;;;;4.90;3.63;;;;;;;;;;5137590;27;20023;-56
2021/08/05 02:08:59;;;;;;;5.55;3.88;;;;;;;;;;5137784;27;20030;-55
2021/08/05 02:11:26;;;;;;;5.90;4.43;;;;;;;;;;5137902;27;20020;-57
2021/08/05 02:13:53;;;;;;;7.88;3.92;;;;;;;;;;5137712;27;20114;-57
2021/08/05 02:16:21;;;;;;;7.25;4.35;;;;;;;;;;5137598;27;20491;-55
2021/08/05 02:18:49;;;;;;;6.68;3.90;;;;;;;;;;5137666;27;20049;-55
2021/08/05 02:21:16;;;;;;;8.38;4.35;;;;;;;;;;5137395;27;20019;-55
2021/08/05 02:23:42;;;;;;;10.07;4.38;;;;;;;;;;5118595;27;20408;-56
2021/08/05 02:26:11;;;;;;;6.78;4.20;;;;;;;;;;5137122;27;20482;-56
2021/08/05 02:28:37;;;;;;;6.75;4.13;;;;;;;;;;5137204;27;20027;-56
2021/08/05 02:31:04;;;;;;;8.65;4.10;;;;;;;;;;5137492;27;20027;-55
2021/08/05 02:33:31;;;;;;;6.25;4.22;;;;;;;;;;5137129;27;20457;-55
2021/08/05 02:35:57;;;;;;;8.55;4.72;;;;;;;;;;5137166;27;20033;-49
2021/08/05 02:38:24;;;;;;;12.48;4.72;;;;;;;;;;5137066;27;20027;-56
2021/08/05 02:40:51;;;;;;;14.45;5.10;;;;;;;;;;5137042;27;20074;-55
2021/08/05 02:43:17;;;;;;;11.57;4.72;;;;;;;;;;5136956;27;20023;-56
2021/08/05 02:45:44;;;;;;;9.38;5.63;;;;;;;;;;5136926;27;20015;-56
2021/08/05 02:48:11;;;;;;;8.30;5.28;;;;;;;;;;5136892;27;20034;-52
2021/08/05 02:50:37;;;;;;;9.23;5.20;;;;;;;;;;5136866;27;20071;-56
2021/08/05 02:53:04;;;;;;;9.45;5.47;;;;;;;;;;5136776;27;20031;-56
2021/08/05 02:55:31;;;;;;;10.23;5.57;;;;;;;;;;5136726;27;20027;-55
2021/08/05 02:57:57;;;;;;;10.55;5.03;;;;;;;;;;5136706;27;20039;-55
2021/08/05 03:00:24;;;;;;;12.50;4.80;;;;;;;;;;5136795;27;20015;-55
2021/08/05 03:02:50;;;;;;;12.45;5.10;;;;;;;;;;5136945;27;20031;-55
2021/08/05 03:05:17;;;;;;;8.68;4.80;;;;;;;;;;5136618;27;20076;-55
2021/08/05 03:07:43;;;;;;;8.40;4.53;;;;;;;;;;5136622;27;20024;-57
2021/08/05 03:10:10;;;;;;;9.20;4.68;;;;;;;;;;5136234;27;20038;-55
2021/08/05 03:12:36;;;;;;;6.95;4.30;;;;;;;;;;5136402;27;20023;-56
2021/08/05 03:15:05;;;;;;;7.88;4.25;;;;;;;;;;5136713;27;20036;-57
2021/08/05 03:17:31;;;;;;;6.20;4.03;;;;;;;;;;5136297;27;20031;-56
2021/08/05 03:19:57;;;;;;;11.55;4.43;;;;;;;;;;5136607;27;20434;-54
2021/08/05 03:22:28;;;;;;;8.48;4.05;;;;;;;;;;5136397;27;20029;-54
2021/08/05 03:24:54;;;;;;;6.67;4.17;;;;;;;;;;5117311;27;20123;-53
2021/08/05 03:27:20;;;;;;;7.68;4.30;;;;;;;;;;5136213;27;20035;-53
2021/08/05 03:29:46;;;;;;;10.88;4.25;;;;;;;;;;5136151;27;20094;-55
2021/08/05 03:32:12;;;;;;;7.68;4.32;;;;;;;;;;5136383;27;20395;-55
2021/08/05 03:34:38;;;;;;;7.13;4.25;;;;;;;;;;5136094;27;20019;-54
2021/08/05 03:37:04;;;;;;;5.10;3.78;;;;;;;;;;5135975;27;20452;-55
2021/08/05 03:39:33;;;;;;;8.40;3.85;;;;;;;;;;5135992;27;20015;-55
2021/08/05 03:41:59;;;;;;;14.50;3.95;;;;;;;;;;5135782;27;20365;-55
2021/08/05 03:44:25;;;;;;;7.70;4.05;;;;;;;;;;5136124;27;20015;-55
2021/08/05 03:46:51;;;;;;;10.85;4.47;;;;;;;;;;5135763;27;20076;-54
2021/08/05 03:49:17;;;;;;;7.05;4.03;;;;;;;;;;5135881;27;20114;-56
2021/08/05 03:51:43;;;;;;;7.03;4.28;;;;;;;;;;5135668;27;20022;-55
2021/08/05 03:54:09;;;;;;;9.60;4.10;;;;;;;;;;5135594;27;20027;-55
2021/08/05 03:56:35;;;;;;;9.57;4.50;;;;;;;;;;5135496;27;20507;-56
2021/08/05 03:59:02;;;;;;;12.88;4.82;;;;;;;;;;5135516;27;20035;-55
2021/08/05 04:01:28;;;;;;;11.30;4.55;;;;;;;;;;5135835;27;20453;-53
2021/08/05 04:03:54;;;;;;;9.38;4.07;;;;;;;;;;5135607;27;20030;-54
2021/08/05 04:06:21;;;;;;;8.18;4.28;;;;;;;;;;5135521;27;20075;-54
2021/08/05 04:08:47;;;;;;;6.03;3.97;;;;;;;;;;5135452;27;20034;-54
2021/08/05 04:11:13;;;;;;;10.52;4.38;;;;;;;;;;5135232;27;20114;-55
2021/08/05 04:13:39;;;;;;;5.72;4.40;;;;;;;;;;5135246;27;20108;-49
2021/08/05 04:16:07;;;;;;;7.40;4.15;;;;;;;;;;5135220;27;20023;-54
2021/08/05 04:18:33;;;;;;;6.30;4.47;;;;;;;;;;5135304;27;20079;-53
2021/08/05 04:20:59;;;;;;;7.03;3.90;;;;;;;;;;5134615;27;20086;-53
2021/08/05 04:23:26;;;;;;;12.57;4.55;;;;;;;;;;5135192;27;20058;-53
2021/08/05 04:25:52;;;;;;;9.52;4.25;;;;;;;;;;5134663;27;20070;-53
2021/08/05 04:28:18;;;;;;;12.40;4.25;;;;;;;;;;5134893;27;20484;-55
2021/08/05 04:30:45;;;;;;;5.65;4.10;;;;;;;;;;5134836;27;20465;-56
2021/08/05 04:33:13;;;;;;;10.73;4.70;;;;;;;;;;5134932;27;20033;-53
2021/08/05 04:35:39;;;;;;;8.55;4.82;;;;;;;;;;5135043;27;20066;-54
2021/08/05 04:38:06;;;;;;;11.98;4.40;;;;;;;;;;5134764;27;20114;-53
2021/08/05 04:40:32;;;;;;;10.45;4.65;;;;;;;;;;5134704;27;20023;-56
2021/08/05 04:43:00;;;;;;;8.55;4.30;;;;;;;;;;5134631;27;20111;-56
2021/08/05 04:45:26;;;;;;;7.50;4.70;;;;;;;;;;5134980;27;20034;-55
2021/08/05 04:48:00;;;;;;;11.55;4.57;;;;;;;;;;5134604;27;20030;-55
2021/08/05 04:50:27;;;;;;;7.60;4.72;;;;;;;;;;5134734;27;20023;-57
2021/08/05 04:52:54;;;;;;;11.05;4.43;;;;;;;;;;5134498;27;20031;-53
2021/08/05 04:55:20;;;;;;;11.30;4.82;;;;;;;;;;5134428;27;20027;-57
2021/08/05 04:57:53;;;;;;;14.88;4.32;;;;;;;;;;5134398;27;20035;-55
2021/08/05 05:00:24;;;;;;;11.77;5.05;;;;;;;;;;5134522;27;20023;-56
2021/08/05 05:02:50;;;;;;;8.40;4.63;;;;;;;;;;5134704;27;20024;-55
2021/08/05 05:05:16;;;;;;;9.05;4.75;;;;;;;;;;5134702;27;20087;-56
2021/08/05 05:07:42;;;;;;;8.60;4.45;;;;;;;;;;5134420;27;20019;-56
2021/08/05 05:10:09;;;;;;;10.13;4.90;;;;;;;;;;5115618;28;20023;-55
2021/08/05 05:12:35;;;;;;;11.52;4.75;;;;;;;;;;5134284;27;20015;-56
2021/08/05 05:15:01;;;;;;;11.40;4.72;;;;;;;;;;5134406;27;20019;-55
2021/08/05 05:17:27;;;;;;;10.40;4.00;;;;;;;;;;5134298;27;20079;-55
2021/08/05 05:19:53;;;;;;;10.93;4.78;;;;;;;;;;5134291;28;20020;-55
2021/08/05 05:22:20;;;;;;;10.05;4.47;;;;;;;;;;5134146;28;20030;-54
2021/08/05 05:24:46;;;;;;;8.35;4.03;;;;;;;;;;5134008;28;20031;-55
2021/08/05 05:27:13;;;;;;;10.23;4.78;;;;;;;;;;5133962;28;20054;-54
2021/08/05 05:29:40;;;;;;;13.45;4.50;;;;;;;;;;5134414;28;20050;-55
2021/08/05 05:32:06;;;;;;;8.82;4.70;;;;;;;;;;5135794;27;20029;-53
2021/08/05 05:34:32;;;;;;;8.18;4.00;;;;;;;;;;5138515;27;20064;-55
2021/08/05 05:37:01;;;;;;;10.30;4.00;;;;;;;;;;5138341;27;20449;-55
2021/08/05 05:39:27;;;;;;;10.30;3.70;;;;;;;;;;5138316;27;20012;-55
2021/08/05 05:41:53;;;;;;;7.90;4.13;;;;;;;;;;5138167;27;20031;-49
2021/08/05 05:44:19;;;;;;;7.75;4.35;;;;;;;;;;5138545;27;20027;-54
2021/08/05 05:46:45;;;;;;;11.20;5.13;;;;;;;;;;5138390;27;20098;-54
2021/08/05 05:49:12;;;;;;;12.95;4.28;;;;;;;;;;5138170;27;20092;-53
2021/08/05 05:51:38;;;;;;;13.68;4.72;;;;;;;;;;5138119;27;20031;-52
2021/08/05 05:54:05;;;;;;;8.90;4.32;;;;;;;;;;5138149;27;20388;-52
2021/08/05 05:56:32;;;;;;;9.27;4.00;;;;;;;;;;5137641;27;20035;-52
2021/08/05 05:58:58;;;;;;;9.65;3.83;;;;;;;;;;5138126;27;20055;-51
2021/08/05 06:01:24;;;;;;;11.50;5.35;;;;;;;;;;5119096;27;20526;-52
2021/08/05 06:03:50;;;;;;;6.43;4.05;;;;;;;;;;5137229;27;20038;-50
2021/08/05 06:06:16;;;;;;;10.70;4.25;;;;;;;;;;5119431;27;20493;-52
2021/08/05 06:08:42;;;;;;;10.75;4.20;;;;;;;;;;5137893;27;20046;-57
2021/08/05 06:11:08;;;;;;;13.65;4.15;;;;;;;;;;5137615;27;20056;-54
2021/08/05 06:13:34;;;;;;;8.43;4.20;;;;;;;;;;5137692;27;20038;-55
2021/08/05 06:16:00;;;;;;;12.65;4.63;;;;;;;;;;5137501;27;20525;-55
2021/08/05 06:18:26;;;;;;;11.25;4.85;;;;;;;;;;5137585;27;20039;-56
2021/08/05 06:20:53;;;;;;;6.13;4.20;;;;;;;;;;5137593;27;20064;-54
2021/08/05 06:23:19;;;;;;;11.00;5.03;;;;;;;;;;5137317;27;20429;-54
2021/08/05 06:25:45;;;;;;;16.42;5.63;;;;;;;;;;5137216;27;20047;-55
2021/08/05 06:28:11;;;;;;;11.45;4.68;;;;;;;;;;5137248;27;20072;-52
2021/08/05 06:30:37;;;;;;;13.00;4.65;;;;;;;;;;5137520;27;20054;-55
2021/08/05 06:33:03;;;;;;;13.93;4.57;;;;;;;;;;5137894;27;20094;-53
2021/08/05 06:35:29;;;;;;;12.30;4.28;;;;;;;;;;5137923;27;20027;-54
2021/08/05 06:37:55;;;;;;;14.18;5.40;;;;;;;;;;5137218;27;20031;-56
2021/08/05 06:40:21;;;;;;;14.60;4.85;;;;;;;;;;5137258;27;20052;-56
2021/08/05 06:42:48;;;;;;;17.15;4.97;;;;;;;;;;5136743;27;20099;-56
2021/08/05 06:45:14;;;;;;;10.30;4.47;;;;;;;;;;5136605;27;20015;-56
2021/08/05 06:47:42;;;;;;;14.30;5.15;;;;;;;;;;5137202;27;20034;-57
2021/08/05 06:50:11;;;;;;;13.80;4.80;;;;;;;;;;5136892;27;20020;-57
2021/08/05 06:52:39;;;;;;;10.65;4.18;;;;;;;;;;5118765;27;20030;-57
2021/08/05 06:55:06;;;;;;;13.18;4.55;;;;;;;;;;5136838;27;20145;-56
2021/08/05 06:57:32;;;;;;;15.85;4.38;;;;;;;;;;5136867;27;20106;-57
2021/08/05 06:59:58;;;;;;;12.15;4.60;;;;;;;;;;5136867;27;20019;-57
2021/08/05 07:02:27;;;;;;;12.52;4.30;;;;;;;;;;5136750;27;20038;-58
2021/08/05 07:04:53;;;;;;;12.05;4.55;;;;;;;;;;5136852;27;20074;-57
2021/08/05 07:07:22;;;;;;;15.15;4.30;;;;;;;;;;5136617;27;20023;-55
2021/08/05 07:09:48;;;;;;;11.65;4.38;;;;;;;;;;5136934;27;20050;-57
2021/08/05 07:12:14;;;;;;;15.75;4.38;;;;;;;;;;5136374;27;20023;-55
2021/08/05 07:14:41;;;;;;;11.60;4.53;;;;;;;;;;5136510;27;20027;-55
2021/08/05 07:17:07;;;;;;;16.70;4.65;;;;;;;;;;5136393;27;20465;-57
2021/08/05 07:19:33;;;;;;;16.88;4.15;;;;;;;;;;5136519;27;20023;-55
2021/08/05 07:22:01;;;;;;;36.38;5.45;;;;;;;;;;5136292;27;20055;-54
2021/08/05 07:24:27;;;;;;;32.25;6.65;;;;;;;;;;5135595;27;20392;-57
2021/08/05 07:26:54;;;;;;;21.52;5.10;;;;;;;;;;5135209;27;20062;-56
2021/08/05 07:29:20;;;;;;;27.65;13.27;;;;;;;;;;5135560;27;20027;-55
2021/08/05 07:31:46;;;;;;;13.70;5.03;;;;;;;;;;5135800;27;20031;-55
2021/08/05 07:34:12;;;;;;;17.75;5.30;;;;;;;;;;5135739;27;20023;-52
2021/08/05 07:36:38;;;;;;;17.88;5.85;;;;;;;;;;5135382;27;20072;-52
2021/08/05 07:39:06;;;;;;;18.85;6.43;;;;;;;;;;5132590;27;20026;-55
2021/08/05 07:41:32;;;;;;;15.13;5.50;;;;;;;;;;5135345;27;20044;-51
2021/08/05 07:43:58;;;;;;;21.77;7.70;;;;;;;;;;5135642;27;20019;-51
2021/08/05 07:46:24;;;;;;;19.55;6.57;;;;;;;;;;5132506;27;20030;-56
2021/08/05 07:48:50;;;;;;;15.73;6.47;;;;;;;;;;5135341;27;20491;-52
2021/08/05 07:51:16;;;;;;;14.65;5.70;;;;;;;;;;5135738;27;20178;-49
2021/08/05 07:53:42;;;;;;;20.25;6.13;;;;;;;;;;5135699;27;20015;-55
2021/08/05 07:56:08;;;;;;;17.95;5.60;;;;;;;;;;5134260;27;20027;-55
2021/08/05 07:58:34;;;;;;;15.10;5.53;;;;;;;;;;5135460;27;20092;-55
2021/08/05 08:01:00;;;;;;;22.27;8.48;;;;;;;;;;5135576;27;20098;-48
2021/08/05 08:03:26;;;;;;;19.80;7.47;;;;;;;;;;5135408;27;20480;-53
2021/08/05 08:05:55;;;;;;;14.63;7.00;;;;;;;;;;5135639;27;20096;-54
2021/08/05 08:08:21;;;;;;;12.38;4.82;;;;;;;;;;5135409;27;20023;-51
2021/08/05 08:10:47;;;;;;;20.13;5.70;;;;;;;;;;5135455;27;20015;-54
2021/08/05 08:13:13;;;;;;;12.85;5.03;;;;;;;;;;5134932;27;20035;-54
2021/08/05 08:15:39;;;;;;;17.73;5.50;;;;;;;;;;5135306;27;20027;-55
2021/08/05 08:18:06;;;;;;;13.27;4.93;;;;;;;;;;5135264;27;20054;-51
2021/08/05 08:20:32;;;;;;;13.00;5.25;;;;;;;;;;5135094;27;20415;-52
2021/08/05 08:22:58;;;;;;;13.82;6.07;;;;;;;;;;5134831;27;20140;-55
2021/08/05 08:25:24;;;;;;;11.50;5.28;;;;;;;;;;5134799;27;20382;-54
2021/08/05 08:27:51;;;;;;;27.95;10.48;;;;;;;;;;5134793;27;20110;-55
2021/08/05 08:30:19;;;;;;;30.25;14.75;;;;;;;;;;5135189;27;20053;-55
2021/08/05 08:32:47;;;;;;;27.08;10.63;;;;;;;;;;5135178;27;20358;-51
2021/08/05 08:35:13;;;;;;;31.08;14.70;;;;;;;;;;5134940;27;20047;-51
2021/08/05 08:37:39;;;;;;;25.60;12.45;;;;;;;;;;5134602;27;20031;-54
2021/08/05 08:40:06;;;;;;;15.68;7.05;;;;;;;;;;5116110;27;20031;-53
2021/08/05 08:42:33;;;;;;;13.52;6.25;;;;;;;;;;5134771;27;20031;-56
2021/08/05 08:44:59;;;;;;;15.73;6.40;;;;;;;;;;5134919;27;20029;-56
2021/08/05 08:47:25;;;;;;;12.35;5.45;;;;;;;;;;5098951;27;20039;-57
2021/08/05 08:49:52;;;;;;;17.05;6.65;;;;;;;;;;5134228;27;20136;-57
2021/08/05 08:52:19;;;;;;;10.32;5.63;;;;;;;;;;5134171;27;20026;-56
2021/08/05 08:54:45;;;;;;;17.85;5.60;;;;;;;;;;5133915;27;20027;-57
2021/08/05 08:57:16;;;;;;;14.65;5.40;;;;;;;;;;5133748;27;20027;-55
2021/08/05 08:59:42;;;;;;;19.48;7.32;;;;;;;;;;5131644;27;20495;-55
2021/08/05 09:02:08;;;;;;;16.77;6.57;;;;;;;;;;5134019;27;20430;-54
2021/08/05 09:04:35;;;;;;;15.15;7.93;;;;;;;;;;5133907;27;20019;-54
2021/08/05 09:07:02;;;;;;;13.68;6.22;;;;;;;;;;5133448;27;20034;-54
2021/08/05 09:09:28;;;;;;;18.02;5.95;;;;;;;;;;5133777;27;20034;-57
2021/08/05 09:11:54;;;;;;;12.95;6.07;;;;;;;;;;5133855;27;20039;-55
2021/08/05 09:14:39;;;;;;;14.68;5.68;;;;;;;;;;5134024;27;20058;-55
2021/08/05 09:17:24;;;;;;;14.07;5.43;;;;;;;;;;5131096;27;20445;-56
2021/08/05 09:19:51;;;;;;;11.98;5.20;;;;;;;;;;5131786;27;20494;-56
2021/08/05 09:22:30;;;;;;;16.42;5.55;;;;;;;;;;5133544;28;20022;-56
2021/08/05 09:24:58;;;;;;;10.90;5.78;;;;;;;;;;5132436;28;20031;-54
2021/08/05 09:27:32;;;;;;;11.68;5.38;;;;;;;;;;5131147;28;20411;-55
2021/08/05 09:29:59;;;;;;;12.88;5.00;;;;;;;;;;5133707;28;20035;-56
2021/08/05 09:32:28;;;;;;;14.57;5.80;;;;;;;;;;5133716;27;20015;-55
2021/08/05 09:35:07;;;;;;;33.20;12.55;;;;;;;;;;5133354;28;20023;-52
2021/08/05 09:37:37;;;;;;;37.17;19.83;;;;;;;;;;5153785;27;20070;-55
2021/08/05 09:40:14;;;;;;;19.42;8.43;;;;;;;;;;5154650;27;20035;-56
2021/08/05 09:42:41;;;;;;;14.70;7.68;;;;;;;;;;5154649;27;20370;-55
2021/08/05 09:45:10;;;;;;;16.90;8.40;;;;;;;;;;5154664;27;20048;-49
2021/08/05 09:47:42;;;;;;;17.38;7.90;;;;;;;;;;5135979;27;20022;-55
2021/08/05 09:50:09;;;;;;;16.27;6.47;;;;;;;;;;5154527;27;20023;-57
2021/08/05 09:52:36;;;;;;;14.90;6.85;;;;;;;;;;5154586;27;20030;-55
2021/08/05 09:55:06;;;;;;;11.63;5.85;;;;;;;;;;5154310;27;20023;-54
2021/08/05 09:57:33;;;;;;;17.83;8.05;;;;;;;;;;5154613;27;20034;-55
2021/08/05 10:00:05;;;;;;;13.30;7.53;;;;;;;;;;5154561;27;20058;-56
2021/08/05 10:02:41;;;;;;;10.98;5.70;;;;;;;;;;5135987;27;20364;-55
2021/08/05 10:05:11;;;;;;;13.70;8.35;;;;;;;;;;5154254;27;20027;-55
2021/08/05 10:07:44;;;;;;;14.40;7.15;;;;;;;;;;5094798;28;20027;-56
2021/08/05 10:10:13;;;;;;;14.52;8.10;;;;;;;;;;5113152;28;20024;-55
2021/08/05 10:12:40;;;;;;;10.45;6.20;;;;;;;;;;5113069;28;20034;-55
2021/08/05 10:15:15;;;;;;;14.05;7.47;;;;;;;;;;5113182;28;20099;-56
2021/08/05 10:17:42;;;;;;;13.18;7.40;;;;;;;;;;5113083;28;20500;-55
2021/08/05 10:20:13;;;;;;;10.98;6.45;;;;;;;;;;5116258;28;20103;-54
2021/08/05 10:22:40;;;;;;;12.77;6.88;;;;;;;;;;5116948;28;20063;-54
2021/08/05 10:25:08;;;;;;;14.00;7.28;;;;;;;;;;5116413;28;20019;-48
2021/08/05 10:27:35;;;;;;;9.85;6.90;;;;;;;;;;5116707;28;20028;-55
2021/08/05 10:30:02;;;;;;;14.60;7.35;;;;;;;;;;5117006;28;20076;-59
2021/08/05 10:32:28;;;;;;;13.57;7.50;;;;;;;;;;5116676;28;20027;-49
2021/08/05 10:34:54;;;;;;;25.27;13.60;;;;;;;;;;5098389;28;20094;-58
2021/08/05 10:37:21;;;;;;;14.57;7.32;;;;;;;;;;5153425;27;20144;-51
2021/08/05 10:39:47;;;;;;;12.73;8.18;;;;;;;;;;5157648;27;20472;-56
2021/08/05 10:42:18;;;;;;;13.57;8.25;;;;;;;;;;5157621;27;20357;-61
2021/08/05 10:44:44;;;;;;;14.15;8.13;;;;;;;;;;5157903;27;20029;-50
2021/08/05 10:47:15;;;;;;;11.18;7.13;;;;;;;;;;5157173;27;20083;-49
2021/08/05 10:49:41;;;;;;;14.27;7.28;;;;;;;;;;5157608;27;20487;-50
2021/08/05 10:52:07;;;;;;;11.90;7.90;;;;;;;;;;5157461;27;20030;-61
2021/08/05 10:55:00;;;;;;;10.43;7.40;;;;;;;;;;5156514;27;20023;-58
2021/08/05 10:57:26;;;;;;;13.73;7.25;;;;;;;;;;5151188;27;20097;-50
2021/08/05 11:00:04;;;;;;;14.23;10.32;;;;;;;;;;5154268;27;20015;-59
2021/08/05 11:02:43;;;;;;;22.40;12.93;;;;;;;;;;5156605;27;20042;-55
2021/08/05 11:05:10;;;;;;;21.85;8.98;;;;;;;;;;5157219;27;20015;-65
2021/08/05 11:07:36;;;;;;;46.83;18.40;;;;;;;;;;5157186;27;20109;-59
2021/08/05 11:10:14;;;;;;;28.70;14.90;;;;;;;;;;5157089;27;20385;-50
2021/08/05 11:12:44;;;;;;;39.30;17.58;;;;;;;;;;5157081;27;20102;-52
2021/08/05 11:15:23;;;;;;;23.60;12.37;;;;;;;;;;5157249;27;20361;-62
2021/08/05 11:18:07;;;;;;;25.88;10.35;;;;;;;;;;5156966;27;20029;-60
2021/08/05 11:20:36;;;;;;;26.15;11.07;;;;;;;;;;5156681;27;20060;-58
2021/08/05 11:23:03;;;;;;;15.95;8.07;;;;;;;;;;5157114;27;20029;-59
2021/08/05 11:25:47;;;;;;;13.15;7.32;;;;;;;;;;5157018;27;20092;-60
2021/08/05 11:28:23;;;;;;;12.85;6.10;;;;;;;;;;5157257;27;20026;-61
2021/08/05 11:30:53;;;;;;;13.50;6.38;;;;;;;;;;5157093;27;20019;-61
2021/08/05 11:33:38;;;;;;;9.55;5.65;;;;;;;;;;5157217;27;20432;-61
2021/08/05 11:36:24;;;;;;;13.43;5.95;;;;;;;;;;5156904;27;20023;-60
2021/08/05 11:39:08;;;;;;;8.18;4.32;;;;;;;;;;5156584;27;20038;-60
2021/08/05 11:41:44;;;;;;;10.75;4.18;;;;;;;;;;5156870;27;20090;-60
2021/08/05 11:44:30;;;;;;;7.88;3.90;;;;;;;;;;5156699;27;20034;-61
2021/08/05 11:47:11;;;;;;;6.50;3.50;;;;;;;;;;5156355;27;20015;-60
2021/08/05 11:49:37;;;;;;;7.15;3.42;;;;;;;;;;5156880;27;20452;-61
2021/08/05 11:52:12;;;;;;;6.65;3.38;;;;;;;;;;5156733;27;20015;-59
2021/08/05 11:54:39;;;;;;;4.70;2.92;;;;;;;;;;5156613;27;20030;-60
2021/08/05 11:57:06;;;;;;;7.25;3.65;;;;;;;;;;5156228;27;20027;-61
2021/08/05 11:59:36;;;;;;;5.88;3.40;;;;;;;;;;5156342;27;20041;-60
2021/08/05 12:02:03;;;;;;;5.97;3.65;;;;;;;;;;5156115;27;20479;-61
2021/08/05 12:04:29;;;;;;;5.25;3.28;;;;;;;;;;5156501;27;20429;-60
2021/08/05 12:07:14;;;;;;;8.32;3.45;;;;;;;;;;5156455;27;20019;-62
2021/08/05 12:09:40;;;;;;;7.68;3.35;;;;;;;;;;5156000;27;20168;-61
2021/08/05 12:12:06;;;;;;;4.35;3.38;;;;;;;;;;5137719;27;20525;-60
2021/08/05 12:14:33;;;;;;;8.52;2.70;;;;;;;;;;5155993;27;20379;-55
2021/08/05 12:16:59;;;;;;;5.55;2.92;;;;;;;;;;5156254;27;20026;-59
2021/08/05 12:19:32;;;;;;;3.75;3.03;;;;;;;;;;5156075;27;20022;-59
2021/08/05 12:21:58;;;;;;;11.70;3.20;;;;;;;;;;5156188;27;20011;-62
2021/08/05 12:24:26;;;;;;;6.82;3.08;;;;;;;;;;5155713;27;20027;-60
2021/08/05 12:26:59;;;;;;;5.18;3.15;;;;;;;;;;5155744;27;20057;-61
2021/08/05 12:29:25;;;;;;;4.15;3.20;;;;;;;;;;5155701;27;20460;-61
2021/08/05 12:31:51;;;;;;;6.97;3.40;;;;;;;;;;5155732;27;20019;-58
2021/08/05 12:34:19;;;;;;;4.82;3.00;;;;;;;;;;5155868;27;20516;-59
2021/08/05 12:36:45;;;;;;;6.40;3.22;;;;;;;;;;5155827;27;20023;-61
2021/08/05 12:39:11;;;;;;;4.88;3.20;;;;;;;;;;5155415;27;20031;-61
2021/08/05 12:41:53;;;;;;;6.82;2.97;;;;;;;;;;5155092;27;20050;-61
2021/08/05 12:44:24;;;;;;;11.27;5.10;;;;;;;;;;5155792;27;20047;-61
2021/08/05 12:46:51;;;;;;;8.60;3.25;;;;;;;;;;5155617;27;20075;-61
2021/08/05 12:49:18;;;;;;;4.43;3.15;;;;;;;;;;5155636;27;20102;-61
2021/08/05 12:51:44;;;;;;;5.75;3.60;;;;;;;;;;5156301;27;20018;-62
2021/08/05 12:54:14;;;;;;;4.68;3.00;;;;;;;;;;5155657;27;20106;-61
2021/08/05 12:56:44;;;;;;;5.10;3.05;;;;;;;;;;5157267;27;20038;-62
2021/08/05 12:59:11;;;;;;;7.60;3.47;;;;;;;;;;5156502;27;20053;-62
2021/08/05 13:01:37;;;;;;;5.95;2.75;;;;;;;;;;5155513;27;20011;-63
2021/08/05 13:04:03;;;;;;;6.78;3.30;;;;;;;;;;5155661;27;20480;-62
2021/08/05 13:06:52;;;;;;;4.28;2.92;;;;;;;;;;5155427;27;20421;-61
2021/08/05 13:09:18;;;;;;;5.87;2.73;;;;;;;;;;5155094;27;20015;-64
2021/08/05 13:11:45;;;;;;;7.15;2.95;;;;;;;;;;5155033;27;20046;-59
2021/08/05 13:14:31;;;;;;;7.00;3.00;;;;;;;;;;5155303;27;20022;-59
2021/08/05 13:17:10;;;;;;;7.78;3.40;;;;;;;;;;5137624;27;20121;-61
2021/08/05 13:20:02;;;;;;;5.35;3.20;;;;;;;;;;5155133;27;20038;-60
2021/08/05 13:22:34;;;;;;;6.35;2.90;;;;;;;;;;5155201;27;20015;-63
2021/08/05 13:25:00;;;;;;;6.35;3.35;;;;;;;;;;5155056;27;20061;-55
2021/08/05 13:27:32;;;;;;;5.63;3.10;;;;;;;;;;5154893;27;20399;-63
2021/08/05 13:29:59;;;;;;;5.22;3.20;;;;;;;;;;5154972;27;20011;-62
2021/08/05 13:32:25;;;;;;;5.75;3.20;;;;;;;;;;5155008;27;20023;-62
2021/08/05 13:34:57;;;;;;;6.60;3.00;;;;;;;;;;5154840;27;20014;-62
2021/08/05 13:37:25;;;;;;;5.68;3.13;;;;;;;;;;5154939;27;20084;-61
2021/08/05 13:39:59;;;;;;;4.93;3.03;;;;;;;;;;5154804;27;20034;-62
2021/08/05 13:42:25;;;;;;;4.97;2.97;;;;;;;;;;5154913;27;20519;-63
2021/08/05 13:44:51;;;;;;;3.83;2.92;;;;;;;;;;5154626;27;20031;-60
2021/08/05 13:47:18;;;;;;;3.72;2.90;;;;;;;;;;5154669;27;20019;-55
2021/08/05 13:49:44;;;;;;;5.75;3.42;;;;;;;;;;5150423;27;20023;-61
2021/08/05 13:52:11;;;;;;;5.70;3.00;;;;;;;;;;5133691;27;20106;-58
2021/08/05 13:54:38;;;;;;;34.00;22.45;;;;;;;;;;5137540;27;20055;-55
2021/08/05 13:57:04;;;;;;;103.75;78.10;;;;;;;;;;5137425;27;20015;-65
2021/08/05 13:59:30;;;;;;;25.83;19.20;;;;;;;;;;5127228;27;20400;-62
2021/08/05 14:02:00;;;;;;;58.75;30.52;;;;;;;;;;5137105;27;20469;-58
2021/08/05 14:04:27;;;;;;;23.85;16.35;;;;;;;;;;5137625;27;20559;-61
2021/08/05 14:06:53;;;;;;;11.88;8.32;;;;;;;;;;5124674;27;20020;-60
2021/08/05 14:09:19;;;;;;;42.67;28.50;;;;;;;;;;5137216;27;20015;-58
2021/08/05 14:11:46;;;;;;;22.77;17.25;;;;;;;;;;5137119;27;20108;-53
2021/08/05 14:14:12;;;;;;;18.08;16.10;;;;;;;;;;5136886;27;20126;-58
2021/08/05 14:16:44;;;;;;;10.90;6.90;;;;;;;;;;5137125;27;20023;-47
2021/08/05 14:19:11;;;;;;;12.98;7.13;;;;;;;;;;5136974;27;20031;-47
2021/08/05 14:21:37;;;;;;;7.90;4.63;;;;;;;;;;5137060;27;20451;-53
2021/08/05 14:24:03;;;;;;;6.00;4.85;;;;;;;;;;5136896;27;20019;-59
2021/08/05 14:26:29;;;;;;;11.70;5.57;;;;;;;;;;5136473;27;20405;-64
2021/08/05 14:28:55;;;;;;;42.80;24.38;;;;;;;;;;5136796;27;20050;-62
2021/08/05 14:31:21;;;;;;;28.25;16.23;;;;;;;;;;5136813;27;20361;-56
2021/08/05 14:33:47;;;;;;;33.72;18.50;;;;;;;;;;5136657;27;20015;-58
2021/08/05 14:36:14;;;;;;;13.30;9.50;;;;;;;;;;5136793;27;20031;-56
2021/08/05 14:38:40;;;;;;;7.93;4.40;;;;;;;;;;5125585;27;20042;-56
2021/08/05 14:41:09;;;;;;;13.48;11.25;;;;;;;;;;5134967;27;20019;-59